createdAt,value
2022-11-09T00:14:47.052Z,271.10281
2022-11-09T00:29:49.265Z,54.22056
2022-11-09T00:44:51.596Z,4.33765
2022-11-09T00:59:53.843Z,1.08441
2022-11-09T01:14:56.229Z,1.08441
2022-11-09T01:29:58.555Z,1.08441
2022-11-09T01:45:01.090Z,1.08441
2022-11-09T02:00:03.616Z,1.08441
2022-11-09T02:15:06.365Z,1.08441
2022-11-09T02:30:08.971Z,1.08441
2022-11-09T02:45:11.778Z,1.08441
2022-11-09T03:00:14.377Z,1.08441
2022-11-09T03:15:16.766Z,1.08441
2022-11-09T03:30:19.344Z,1.08441
2022-11-09T03:45:21.743Z,1.08441
2022-11-09T04:00:24.474Z,1.08441
2022-11-09T04:15:26.934Z,1.08441
2022-11-09T04:30:29.606Z,1.08441
2022-11-09T04:45:32.124Z,1.08441
2022-11-09T05:00:34.913Z,1.08441
2022-11-09T05:15:37.907Z,1.08441
2022-11-09T05:30:40.482Z,1.08441
2022-11-09T05:45:43.935Z,1.08441
2022-11-09T06:00:46.593Z,1.08441
2022-11-09T06:15:49.068Z,1.08441
2022-11-09T06:30:51.518Z,1.08441
2022-11-09T06:45:53.929Z,1.08441
2022-11-09T07:00:56.323Z,1.08441
2022-11-09T07:15:58.695Z,1.08441
2022-11-09T07:31:01.064Z,1.08441
2022-11-09T07:46:03.359Z,1.08441
2022-11-09T08:01:05.809Z,1.08441
2022-11-09T08:16:08.223Z,1.08441
2022-11-09T08:31:10.827Z,1.08441
2022-11-09T08:46:13.301Z,1.08441
2022-11-09T09:01:17.310Z,1.08441
2022-11-09T09:16:19.902Z,1.08441
2022-11-09T09:31:22.314Z,1.08441
2022-11-09T09:46:24.748Z,1.08441
2022-11-09T10:01:27.267Z,1.08441
2022-11-09T10:16:29.660Z,1.08441
2022-11-09T10:31:31.867Z,1.08441
2022-11-09T10:46:34.163Z,1.08441
2022-11-09T11:01:36.591Z,1.08441
2022-11-09T11:16:38.870Z,1.08441
2022-11-09T11:31:41.310Z,1.08441
2022-11-09T11:46:43.741Z,1.08441
2022-11-09T12:01:46.005Z,1.08441
2022-11-09T12:16:48.356Z,1.08441
2022-11-09T12:31:50.715Z,1.08441
2022-11-09T12:46:53.018Z,1.08441
2022-11-09T13:01:55.345Z,1.08441
2022-11-09T13:16:57.663Z,1.08441
2022-11-09T13:32:00.099Z,1.08441
2022-11-09T13:47:02.300Z,1.08441
2022-11-09T14:02:04.813Z,1.08441
2022-11-09T14:17:07.264Z,1.08441
2022-11-09T14:32:09.494Z,4.33765
2022-11-09T14:47:11.745Z,36.86998
2022-11-09T15:02:14.369Z,225.55754
2022-11-09T15:17:17.012Z,422.92038
2022-11-09T15:32:19.340Z,630.04297
2022-11-09T15:47:21.676Z,1338.16345
2022-11-09T16:02:24.540Z,1273.09888
2022-11-09T16:17:26.810Z,2328.23096
2022-11-09T16:32:29.148Z,2906.22217
2022-11-09T16:47:31.707Z,3564.45972
2022-11-09T17:02:34.192Z,4436.32666
2022-11-09T17:17:36.523Z,4839.72754
2022-11-09T17:32:38.702Z,4790.9292
2022-11-09T17:47:40.849Z,5355.90723
2022-11-09T18:02:43.161Z,5599.8999
2022-11-09T18:17:45.428Z,6377.42285
2022-11-09T18:32:47.660Z,7428.21729
2022-11-09T18:47:49.877Z,6498.87646
2022-11-09T19:02:52.103Z,8212.24609
2022-11-09T19:17:54.450Z,10391.91309
2022-11-09T19:32:56.702Z,10025.38184
2022-11-09T19:47:58.967Z,17537.09961
2022-11-09T20:03:01.194Z,17580.47461
2022-11-09T20:18:03.503Z,15913.73535
2022-11-09T20:33:06.318Z,16165.31836
2022-11-09T20:48:24.889Z,13031.37012
2022-11-09T21:03:49.248Z,12845.93555
2022-11-09T21:18:51.632Z,11936.11523
2022-11-09T21:33:53.931Z,9547.15723
2022-11-09T21:48:56.140Z,7072.53027
2022-11-09T22:03:58.415Z,5640.02295
2022-11-09T22:19:00.874Z,4237.87939
2022-11-09T22:34:03.139Z,2804.2876
2022-11-09T23:19:27.816Z,1456.36438
2022-11-09T23:34:30.243Z,1092.0022
2022-11-09T23:49:32.717Z,758.00348
